• Join FlightAware (Why Join?)
  • Login
  • US Flag 
11:43AM EDT


 

Airport Tracker/Info


-or-


 

Live Flight TrackerFlight Track Log ✈ SWA655 ✈ 23-Apr-2013 ✈ KSNA - KOAK

Flight Track Log - Related Links

Times and Time Zones

All times are in EDT time to prevent confusion due to time zone crossing. See the SWA655 flight status page for this flight to view local times or setup timezone preferences in your user account.

Time Position Orientation Groundspeed Altitude Reporting Facility
EDT Latitude Longitude Course Direction KTS MPH feet Rate Location/Type
02:24PM 33.6667 -117.8833 196° South 137 158 1,400  Level Southern California TRACON
02:25PM 33.6167 -117.9000 196° South 152 175 2,800 1,020 Climbing Southern California TRACON
02:26PM 33.5833 -117.9167 203° Southwest 173 199 3,500 1,140 Climbing Southern California TRACON
02:27PM 33.5333 -117.9500 209° Southwest 216 249 5,100 2,340 Climbing Southern California TRACON
02:28PM 33.4756 -117.9969 214° Southwest 242 278 8,400 3,060 Climbing Los Angeles Center
02:29PM 33.4039 -118.0531 213° Southwest 290 334 11,500 2,880 Climbing Los Angeles Center
02:30PM 33.3397 -118.1369 228° Southwest 342 394 14,400 3,360 Climbing Los Angeles Center
02:32PM 33.3550 -118.2789 277° West 356 410 18,500 3,540 Climbing Los Angeles Center
02:33PM 33.4075 -118.4086 296° West 381 438 22,600 3,000 Climbing Los Angeles Center
02:34PM 33.5161 -118.4239 353° North 402 463 25,400 2,400 Climbing Los Angeles Center
02:35PM 33.6342 -118.4264 359° North 416 479 27,600 1,980 Climbing Los Angeles Center
02:36PM 33.7578 -118.4289 359° North 436 502 29,600 2,160 Climbing Los Angeles Center
02:37PM 33.8889 -118.4322 359° North 444 511 32,100 2,220 Climbing Los Angeles Center
02:38PM 34.0036 -118.4664 346° North 424 488 34,300 1,860 Climbing Los Angeles Center
02:39PM 34.1142 -118.5206 338° Northwest 429 494 36,000 1,740 Climbing Los Angeles Center
02:40PM 34.2464 -118.5861 338° Northwest 427 491 38,000 960 Climbing Los Angeles Center
02:41PM 34.3553 -118.6392 338° Northwest 423 487 38,000  Level Los Angeles Center
02:42PM 34.4639 -118.6942 337° Northwest 424 488 38,000  Level Los Angeles Center
02:43PM 34.5717 -118.7461 338° Northwest 419 482 38,000  Level Los Angeles Center
02:44PM 34.6783 -118.8047 336° Northwest 421 484 38,000  Level Los Angeles Center
02:45PM 34.7686 -118.8903 322° Northwest 415 478 38,000  Level Los Angeles Center
02:46PM 34.8767 -118.9928 322° Northwest 411 473 38,000  Level Los Angeles Center
02:47PM 34.9678 -119.0767 323° Northwest 410 472 38,000  Level Los Angeles Center
02:48PM 35.0581 -119.1625 322° Northwest 414 476 38,000  Level Los Angeles Center
02:49PM 35.1486 -119.2458 323° Northwest 410 472 38,000  Level Los Angeles Center
02:50PM 35.2408 -119.3350 322° Northwest 421 484 38,000  Level Los Angeles Center
02:51PM 35.3519 -119.4392 323° Northwest 423 487 38,000  Level Los Angeles Center
02:53PM 35.4389 -119.5261 321° Northwest 419 482 38,000  Level Oakland Center
02:54PM 35.5314 -119.6125 323° Northwest 420 483 38,000  Level Oakland Center
02:55PM 35.6208 -119.7011 321° Northwest 418 481 38,000  Level Oakland Center
02:56PM 35.7311 -119.8058 322° Northwest 419 482 38,000  Level Oakland Center
02:57PM 35.8217 -119.8936 322° Northwest 418 481 38,000  Level Oakland Center
02:58PM 35.9108 -119.9814 321° Northwest 416 479 38,000  Level Oakland Center
02:59PM 36.0014 -120.0692 322° Northwest 417 480 38,000  Level Oakland Center
03:00PM 36.0925 -120.1583 322° Northwest 419 482 38,000  Level Oakland Center
03:01PM 36.1828 -120.2481 321° Northwest 418 481 38,000  Level Oakland Center
03:02PM 36.2731 -120.3364 322° Northwest 415 478 38,000 -540 Level Oakland Center
03:03PM 36.3622 -120.4261 321° Northwest 414 476 37,000 -1,500 Descending Oakland Center
03:04PM 36.4697 -120.5289 322° Northwest 408 470 35,000 -1,860 Descending Oakland Center
03:05PM 36.5594 -120.6219 320° Northwest 420 483 33,300 -2,100 Descending Oakland Center
03:06PM 36.6514 -120.7169 320° Northwest 429 494 30,800 -2,700 Descending Oakland Center
03:07PM 36.7425 -120.8097 321° Northwest 423 487 27,800 -2,760 Descending Oakland Center
03:08PM 36.8267 -120.9003 319° Northwest 407 468 25,200 -2,580 Descending Oakland Center
03:09PM 36.9061 -120.9936 317° Northwest 395 455 22,600 -2,640 Descending Oakland Center
03:10PM 36.9833 -121.0844 317° Northwest 383 441 19,900 -2,820 Descending Oakland Center
03:11PM 37.0669 -121.1792 318° Northwest 372 428 16,900 -2,640 Descending Oakland Center
03:12PM 37.1344 -121.2575 317° Northwest 368 423 14,600 -2,520 Descending Oakland Center
03:13PM 37.2211 -121.3583 317° Northwest 356 410 11,800 -2,160 Descending Oakland Center
03:14PM 37.2892 -121.4381 317° Northwest 340 391 10,200 -1,320 Descending Oakland Center
03:15PM 37.3511 -121.5089 318° Northwest 305 351 9,200 -1,260 Descending Oakland Center
03:16PM 37.4000 -121.5833 310° West 283 326 7,800 -1,140 Descending Northern Cal TRACON
03:17PM 37.4667 -121.6500 322° Northwest 280 322 7,000 -780 Descending Northern Cal TRACON
03:18PM 37.5000 -121.7167 302° West 279 321 6,300 -780 Descending Northern Cal TRACON
03:19PM 37.5333 -121.8167 293° West 275 316 5,500 -780 Descending Northern Cal TRACON
03:20PM 37.5667 -121.9000 297° West 269 310 4,800 -960 Descending Northern Cal TRACON
03:21PM 37.5833 -121.9833 284° West 252 290 3,600 -1,200 Descending Northern Cal TRACON
03:22PM 37.6000 -122.0500 288° West 198 228 2,500 -720 Descending Northern Cal TRACON
03:23PM 37.6333 -122.1000 310° West 135 155 2,200 -540 Descending Northern Cal TRACON
03:24PM 37.6500 -122.1333 302° West 135 155 1,500 -660 Descending Northern Cal TRACON
03:25PM 37.6667 -122.1667 302° West 130 150 900 -660 Descending Northern Cal TRACON
03:25PM 37.6744 -122.1744 322° Northwest 136 157 700 -660 Descending Oakland Center
03:26PM 37.6967 -122.2078 310° West 129 148 100 -600 Descending Oakland Center
03:28PM 37.7167 -122.2167 270° West  Level FlightAware Approximate
03:35PM 37.7213 -122.2207 270° West  Level Estimated